sensor_id;sensor_type;location;lat;lon;timestamp;temperature;humidity
19928;DHT22;10126;50.876;4.470;2023-03-16T00:01:05;7.50;99.90
19928;DHT22;10126;50.876;4.470;2023-03-16T00:03:06;7.40;99.90
19928;DHT22;10126;50.876;4.470;2023-03-16T00:05:11;7.40;99.90
19928;DHT22;10126;50.876;4.470;2023-03-16T00:07:13;7.40;99.90
19928;DHT22;10126;50.876;4.470;2023-03-16T00:09:14;7.40;99.90
19928;DHT22;10126;50.876;4.470;2023-03-16T00:11:14;7.40;99.90
19928;DHT22;10126;50.876;4.470;2023-03-16T00:13:16;7.60;99.90
19928;DHT22;10126;50.876;4.470;2023-03-16T00:15:17;7.60;99.90
19928;DHT22;10126;50.876;4.470;2023-03-16T00:17:19;7.60;99.90
19928;DHT22;10126;50.876;4.470;2023-03-16T00:19:20;7.70;99.90
19928;DHT22;10126;50.876;4.470;2023-03-16T00:21:22;7.60;99.90
19928;DHT22;10126;50.876;4.470;2023-03-16T00:23:23;7.60;99.90
19928;DHT22;10126;50.876;4.470;2023-03-16T00:25:26;7.60;99.90
19928;DHT22;10126;50.876;4.470;2023-03-16T00:27:27;7.70;99.90
19928;DHT22;10126;50.876;4.470;2023-03-16T00:29:27;7.60;99.90
19928;DHT22;10126;50.876;4.470;2023-03-16T00:31:28;7.60;99.90
19928;DHT22;10126;50.876;4.470;2023-03-16T00:33:29;7.60;99.90
19928;DHT22;10126;50.876;4.470;2023-03-16T00:35:34;7.60;99.90
19928;DHT22;10126;50.876;4.470;2023-03-16T00:37:34;7.70;99.90
19928;DHT22;10126;50.876;4.470;2023-03-16T00:39:36;7.80;99.90
19928;DHT22;10126;50.876;4.470;2023-03-16T00:41:37;7.70;99.90
19928;DHT22;10126;50.876;4.470;2023-03-16T00:43:38;7.60;99.90
19928;DHT22;10126;50.876;4.470;2023-03-16T00:45:41;7.60;99.90
19928;DHT22;10126;50.876;4.470;2023-03-16T00:47:44;7.60;99.90
19928;DHT22;10126;50.876;4.470;2023-03-16T00:49:44;7.60;99.90
19928;DHT22;10126;50.876;4.470;2023-03-16T00:51:45;7.60;99.90
19928;DHT22;10126;50.876;4.470;2023-03-16T00:53:46;7.70;99.90
19928;DHT22;10126;50.876;4.470;2023-03-16T00:55:47;7.50;99.90
19928;DHT22;10126;50.876;4.470;2023-03-16T00:57:47;7.60;99.90
19928;DHT22;10126;50.876;4.470;2023-03-16T00:59:48;7.60;99.90
19928;DHT22;10126;50.876;4.470;2023-03-16T01:01:49;7.70;99.90
19928;DHT22;10126;50.876;4.470;2023-03-16T01:03:50;7.70;99.90
19928;DHT22;10126;50.876;4.470;2023-03-16T01:05:50;7.80;99.90
19928;DHT22;10126;50.876;4.470;2023-03-16T01:07:51;7.80;99.90
19928;DHT22;10126;50.876;4.470;2023-03-16T01:09:51;7.70;99.90
19928;DHT22;10126;50.876;4.470;2023-03-16T01:11:52;7.60;99.90
19928;DHT22;10126;50.876;4.470;2023-03-16T01:13:53;7.60;99.90
19928;DHT22;10126;50.876;4.470;2023-03-16T01:15:54;7.70;99.90
19928;DHT22;10126;50.876;4.470;2023-03-16T01:17:55;7.80;99.90
19928;DHT22;10126;50.876;4.470;2023-03-16T01:19:55;7.60;99.90
19928;DHT22;10126;50.876;4.470;2023-03-16T01:21:56;7.60;99.90
19928;DHT22;10126;50.876;4.470;2023-03-16T01:23:57;7.60;99.90
19928;DHT22;10126;50.876;4.470;2023-03-16T01:25:58;7.70;99.90
19928;DHT22;10126;50.876;4.470;2023-03-16T01:27:59;7.60;99.90
19928;DHT22;10126;50.876;4.470;2023-03-16T01:30:00;7.60;99.90
19928;DHT22;10126;50.876;4.470;2023-03-16T01:32:02;7.60;99.90
19928;DHT22;10126;50.876;4.470;2023-03-16T01:34:04;7.60;99.90
19928;DHT22;10126;50.876;4.470;2023-03-16T01:36:07;7.60;99.90
19928;DHT22;10126;50.876;4.470;2023-03-16T01:38:10;7.60;99.90
19928;DHT22;10126;50.876;4.470;2023-03-16T01:40:11;7.70;99.90
19928;DHT22;10126;50.876;4.470;2023-03-16T01:42:12;7.70;99.90
19928;DHT22;10126;50.876;4.470;2023-03-16T01:44:16;7.70;99.90
19928;DHT22;10126;50.876;4.470;2023-03-16T01:46:22;7.70;99.90
19928;DHT22;10126;50.876;4.470;2023-03-16T01:48:24;7.70;99.90
19928;DHT22;10126;50.876;4.470;2023-03-16T01:50:25;7.70;99.90
19928;DHT22;10126;50.876;4.470;2023-03-16T01:52:34;7.70;99.90
19928;DHT22;10126;50.876;4.470;2023-03-16T01:54:46;7.70;99.90
19928;DHT22;10126;50.876;4.470;2023-03-16T01:59:03;7.70;99.90
19928;DHT22;10126;50.876;4.470;2023-03-16T02:01:08;7.80;99.90
19928;DHT22;10126;50.876;4.470;2023-03-16T02:03:16;7.70;99.90
19928;DHT22;10126;50.876;4.470;2023-03-16T02:05:43;7.70;99.90
19928;DHT22;10126;50.876;4.470;2023-03-16T02:07:50;7.70;99.90
19928;DHT22;10126;50.876;4.470;2023-03-16T02:09:59;7.80;99.90
19928;DHT22;10126;50.876;4.470;2023-03-16T02:12:03;7.80;99.90
19928;DHT22;10126;50.876;4.470;2023-03-16T02:14:09;7.70;99.90
19928;DHT22;10126;50.876;4.470;2023-03-16T02:16:13;7.60;99.90
19928;DHT22;10126;50.876;4.470;2023-03-16T02:18:19;7.60;99.90
19928;DHT22;10126;50.876;4.470;2023-03-16T02:22:36;7.80;99.90
19928;DHT22;10126;50.876;4.470;2023-03-16T02:24:44;7.90;99.90
19928;DHT22;10126;50.876;4.470;2023-03-16T02:26:51;7.80;99.90
19928;DHT22;10126;50.876;4.470;2023-03-16T02:31:20;7.80;99.90
19928;DHT22;10126;50.876;4.470;2023-03-16T02:33:22;7.80;99.90
19928;DHT22;10126;50.876;4.470;2023-03-16T02:35:23;8.00;99.90
19928;DHT22;10126;50.876;4.470;2023-03-16T02:37:26;7.90;99.90
19928;DHT22;10126;50.876;4.470;2023-03-16T02:39:32;8.00;99.90
19928;DHT22;10126;50.876;4.470;2023-03-16T02:41:34;8.00;99.90
19928;DHT22;10126;50.876;4.470;2023-03-16T02:43:37;7.90;99.90
19928;DHT22;10126;50.876;4.470;2023-03-16T02:45:45;7.80;99.90
19928;DHT22;10126;50.876;4.470;2023-03-16T02:47:47;7.80;99.90
19928;DHT22;10126;50.876;4.470;2023-03-16T02:49:50;7.80;99.90
19928;DHT22;10126;50.876;4.470;2023-03-16T02:51:51;7.80;99.90
19928;DHT22;10126;50.876;4.470;2023-03-16T02:53:52;7.80;99.90
19928;DHT22;10126;50.876;4.470;2023-03-16T02:55:53;7.80;99.90
19928;DHT22;10126;50.876;4.470;2023-03-16T02:57:53;7.80;99.90
19928;DHT22;10126;50.876;4.470;2023-03-16T02:59:54;7.90;99.90
19928;DHT22;10126;50.876;4.470;2023-03-16T03:01:55;8.00;99.90
19928;DHT22;10126;50.876;4.470;2023-03-16T03:03:56;7.90;99.90
19928;DHT22;10126;50.876;4.470;2023-03-16T03:05:56;7.90;99.90
19928;DHT22;10126;50.876;4.470;2023-03-16T03:07:57;8.00;99.90
19928;DHT22;10126;50.876;4.470;2023-03-16T03:09:58;7.90;99.90
19928;DHT22;10126;50.876;4.470;2023-03-16T03:11:59;7.90;99.90
19928;DHT22;10126;50.876;4.470;2023-03-16T03:14:00;8.00;99.90
19928;DHT22;10126;50.876;4.470;2023-03-16T03:16:00;8.00;99.90
19928;DHT22;10126;50.876;4.470;2023-03-16T03:18:01;7.90;99.90
19928;DHT22;10126;50.876;4.470;2023-03-16T03:20:02;8.00;99.90
19928;DHT22;10126;50.876;4.470;2023-03-16T03:22:07;8.10;99.90
19928;DHT22;10126;50.876;4.470;2023-03-16T03:24:08;8.00;99.90
19928;DHT22;10126;50.876;4.470;2023-03-16T03:26:09;8.10;99.90
19928;DHT22;10126;50.876;4.470;2023-03-16T03:28:12;8.20;99.90
19928;DHT22;10126;50.876;4.470;2023-03-16T03:30:16;8.20;99.90
19928;DHT22;10126;50.876;4.470;2023-03-16T03:32:17;8.10;99.90
19928;DHT22;10126;50.876;4.470;2023-03-16T03:34:18;8.00;99.90
19928;DHT22;10126;50.876;4.470;2023-03-16T03:36:19;8.00;99.90
19928;DHT22;10126;50.876;4.470;2023-03-16T03:38:21;8.00;99.90
19928;DHT22;10126;50.876;4.470;2023-03-16T03:40:22;8.10;99.90
19928;DHT22;10126;50.876;4.470;2023-03-16T03:42:26;8.10;99.90
19928;DHT22;10126;50.876;4.470;2023-03-16T03:44:26;8.00;99.90
19928;DHT22;10126;50.876;4.470;2023-03-16T03:46:27;7.90;99.90
19928;DHT22;10126;50.876;4.470;2023-03-16T03:48:28;7.90;99.90
19928;DHT22;10126;50.876;4.470;2023-03-16T03:50:29;7.90;99.90
19928;DHT22;10126;50.876;4.470;2023-03-16T03:52:29;7.80;99.90
19928;DHT22;10126;50.876;4.470;2023-03-16T03:54:30;7.80;99.90
19928;DHT22;10126;50.876;4.470;2023-03-16T03:56:31;7.90;99.90
19928;DHT22;10126;50.876;4.470;2023-03-16T03:58:31;7.80;99.90
19928;DHT22;10126;50.876;4.470;2023-03-16T04:00:32;7.90;99.90
19928;DHT22;10126;50.876;4.470;2023-03-16T04:02:33;7.80;99.90
19928;DHT22;10126;50.876;4.470;2023-03-16T04:04:36;8.00;99.90
19928;DHT22;10126;50.876;4.470;2023-03-16T04:06:37;8.10;99.90
19928;DHT22;10126;50.876;4.470;2023-03-16T04:08:38;8.10;99.90
19928;DHT22;10126;50.876;4.470;2023-03-16T04:10:38;8.00;99.90
19928;DHT22;10126;50.876;4.470;2023-03-16T04:12:39;8.00;99.90
19928;DHT22;10126;50.876;4.470;2023-03-16T04:14:40;8.00;99.90
19928;DHT22;10126;50.876;4.470;2023-03-16T04:16:40;7.80;99.90
19928;DHT22;10126;50.876;4.470;2023-03-16T04:18:43;7.90;99.90
19928;DHT22;10126;50.876;4.470;2023-03-16T04:20:45;7.90;99.90
19928;DHT22;10126;50.876;4.470;2023-03-16T04:22:46;7.70;99.90
19928;DHT22;10126;50.876;4.470;2023-03-16T04:24:47;7.60;99.90
19928;DHT22;10126;50.876;4.470;2023-03-16T04:26:48;7.60;99.90
19928;DHT22;10126;50.876;4.470;2023-03-16T04:28:54;7.70;99.90
19928;DHT22;10126;50.876;4.470;2023-03-16T04:30:55;7.70;99.90
19928;DHT22;10126;50.876;4.470;2023-03-16T04:33:06;7.60;99.90
19928;DHT22;10126;50.876;4.470;2023-03-16T04:35:50;7.60;99.90
19928;DHT22;10126;50.876;4.470;2023-03-16T04:38:27;7.70;99.90
19928;DHT22;10126;50.876;4.470;2023-03-16T04:40:28;7.90;99.90
19928;DHT22;10126;50.876;4.470;2023-03-16T04:42:29;7.80;99.90
19928;DHT22;10126;50.876;4.470;2023-03-16T04:44:30;7.90;99.90
19928;DHT22;10126;50.876;4.470;2023-03-16T04:46:31;7.90;99.90
19928;DHT22;10126;50.876;4.470;2023-03-16T04:48:31;7.80;99.90
19928;DHT22;10126;50.876;4.470;2023-03-16T04:50:32;7.80;99.90
19928;DHT22;10126;50.876;4.470;2023-03-16T04:52:33;7.70;99.90
19928;DHT22;10126;50.876;4.470;2023-03-16T04:54:34;7.70;99.90
19928;DHT22;10126;50.876;4.470;2023-03-16T04:56:35;7.70;99.90
19928;DHT22;10126;50.876;4.470;2023-03-16T04:58:35;7.70;99.90
19928;DHT22;10126;50.876;4.470;2023-03-16T05:00:36;7.70;99.90
19928;DHT22;10126;50.876;4.470;2023-03-16T05:02:37;7.70;99.90
19928;DHT22;10126;50.876;4.470;2023-03-16T05:04:37;7.80;99.90
19928;DHT22;10126;50.876;4.470;2023-03-16T05:06:38;7.70;99.90
19928;DHT22;10126;50.876;4.470;2023-03-16T05:08:38;7.60;99.90
19928;DHT22;10126;50.876;4.470;2023-03-16T05:10:39;7.60;99.90
19928;DHT22;10126;50.876;4.470;2023-03-16T05:12:40;7.70;99.90
19928;DHT22;10126;50.876;4.470;2023-03-16T05:14:41;7.60;99.90
19928;DHT22;10126;50.876;4.470;2023-03-16T05:16:41;7.60;99.90
19928;DHT22;10126;50.876;4.470;2023-03-16T05:18:42;7.60;99.90
19928;DHT22;10126;50.876;4.470;2023-03-16T05:20:43;7.50;99.90
19928;DHT22;10126;50.876;4.470;2023-03-16T05:22:45;7.50;99.90
19928;DHT22;10126;50.876;4.470;2023-03-16T05:24:47;7.60;99.90
19928;DHT22;10126;50.876;4.470;2023-03-16T05:26:50;7.60;99.90
19928;DHT22;10126;50.876;4.470;2023-03-16T05:29:02;7.50;99.90
19928;DHT22;10126;50.876;4.470;2023-03-16T05:31:03;7.60;99.90
19928;DHT22;10126;50.876;4.470;2023-03-16T05:33:04;7.60;99.90
19928;DHT22;10126;50.876;4.470;2023-03-16T05:35:05;7.60;99.90
19928;DHT22;10126;50.876;4.470;2023-03-16T05:37:13;7.70;99.90
19928;DHT22;10126;50.876;4.470;2023-03-16T05:39:14;7.70;99.90
19928;DHT22;10126;50.876;4.470;2023-03-16T05:41:15;7.50;99.90
19928;DHT22;10126;50.876;4.470;2023-03-16T05:43:19;7.50;99.90
19928;DHT22;10126;50.876;4.470;2023-03-16T05:45:20;7.50;99.90
19928;DHT22;10126;50.876;4.470;2023-03-16T05:47:21;7.50;99.90
19928;DHT22;10126;50.876;4.470;2023-03-16T05:49:21;7.60;99.90
19928;DHT22;10126;50.876;4.470;2023-03-16T05:51:22;7.50;99.90
19928;DHT22;10126;50.876;4.470;2023-03-16T05:53:28;7.40;99.90
19928;DHT22;10126;50.876;4.470;2023-03-16T05:55:31;7.50;99.90
19928;DHT22;10126;50.876;4.470;2023-03-16T05:57:32;7.60;99.90
19928;DHT22;10126;50.876;4.470;2023-03-16T05:59:36;7.80;99.90
19928;DHT22;10126;50.876;4.470;2023-03-16T06:01:36;7.70;99.90
19928;DHT22;10126;50.876;4.470;2023-03-16T06:03:37;7.50;99.90
19928;DHT22;10126;50.876;4.470;2023-03-16T06:05:38;7.60;99.90
19928;DHT22;10126;50.876;4.470;2023-03-16T06:07:38;7.60;99.90
19928;DHT22;10126;50.876;4.470;2023-03-16T06:09:40;7.70;99.90
19928;DHT22;10126;50.876;4.470;2023-03-16T06:11:44;7.60;99.90
19928;DHT22;10126;50.876;4.470;2023-03-16T06:13:44;7.70;99.90
19928;DHT22;10126;50.876;4.470;2023-03-16T06:15:45;7.70;99.90
19928;DHT22;10126;50.876;4.470;2023-03-16T06:17:45;7.80;99.90
19928;DHT22;10126;50.876;4.470;2023-03-16T06:19:48;7.80;99.90
19928;DHT22;10126;50.876;4.470;2023-03-16T06:21:48;7.80;99.90
19928;DHT22;10126;50.876;4.470;2023-03-16T06:23:49;7.80;99.90
19928;DHT22;10126;50.876;4.470;2023-03-16T06:25:50;7.90;99.90
19928;DHT22;10126;50.876;4.470;2023-03-16T06:27:54;7.80;99.90
19928;DHT22;10126;50.876;4.470;2023-03-16T06:29:55;7.80;99.90
19928;DHT22;10126;50.876;4.470;2023-03-16T06:31:55;7.90;99.90
19928;DHT22;10126;50.876;4.470;2023-03-16T06:33:56;7.90;99.90
19928;DHT22;10126;50.876;4.470;2023-03-16T06:35:57;7.90;99.90
19928;DHT22;10126;50.876;4.470;2023-03-16T06:37:57;7.90;99.90
19928;DHT22;10126;50.876;4.470;2023-03-16T06:39:58;8.00;99.90
19928;DHT22;10126;50.876;4.470;2023-03-16T06:42:01;8.00;99.90
19928;DHT22;10126;50.876;4.470;2023-03-16T06:44:03;7.90;99.90
19928;DHT22;10126;50.876;4.470;2023-03-16T06:46:05;8.00;99.90
19928;DHT22;10126;50.876;4.470;2023-03-16T06:48:06;7.90;99.90
19928;DHT22;10126;50.876;4.470;2023-03-16T06:50:09;8.10;99.90
19928;DHT22;10126;50.876;4.470;2023-03-16T06:52:11;8.00;99.90
19928;DHT22;10126;50.876;4.470;2023-03-16T06:54:13;8.00;99.90
19928;DHT22;10126;50.876;4.470;2023-03-16T06:56:14;8.00;99.90
19928;DHT22;10126;50.876;4.470;2023-03-16T06:58:21;8.20;99.90
19928;DHT22;10126;50.876;4.470;2023-03-16T07:00:22;8.30;99.90
19928;DHT22;10126;50.876;4.470;2023-03-16T07:02:22;8.20;99.90
19928;DHT22;10126;50.876;4.470;2023-03-16T07:04:23;8.30;99.90
19928;DHT22;10126;50.876;4.470;2023-03-16T07:06:24;8.30;99.90
19928;DHT22;10126;50.876;4.470;2023-03-16T07:08:24;8.40;99.90
19928;DHT22;10126;50.876;4.470;2023-03-16T07:10:25;8.50;99.90
19928;DHT22;10126;50.876;4.470;2023-03-16T07:12:26;8.50;99.90
19928;DHT22;10126;50.876;4.470;2023-03-16T07:14:27;8.70;99.90
19928;DHT22;10126;50.876;4.470;2023-03-16T07:16:27;8.80;99.90
19928;DHT22;10126;50.876;4.470;2023-03-16T07:18:28;8.80;99.90
19928;DHT22;10126;50.876;4.470;2023-03-16T07:20:29;8.80;99.90
19928;DHT22;10126;50.876;4.470;2023-03-16T07:22:32;8.90;99.90
19928;DHT22;10126;50.876;4.470;2023-03-16T07:24:33;9.00;99.90
19928;DHT22;10126;50.876;4.470;2023-03-16T07:26:33;9.10;99.90
19928;DHT22;10126;50.876;4.470;2023-03-16T07:28:34;9.00;99.90
19928;DHT22;10126;50.876;4.470;2023-03-16T07:30:35;8.90;99.90
19928;DHT22;10126;50.876;4.470;2023-03-16T07:32:35;9.10;99.90
19928;DHT22;10126;50.876;4.470;2023-03-16T07:34:36;9.50;99.90
19928;DHT22;10126;50.876;4.470;2023-03-16T07:36:37;9.90;99.90
19928;DHT22;10126;50.876;4.470;2023-03-16T07:38:37;10.90;99.90
19928;DHT22;10126;50.876;4.470;2023-03-16T07:40:39;12.30;99.90
19928;DHT22;10126;50.876;4.470;2023-03-16T07:42:41;13.50;99.90
19928;DHT22;10126;50.876;4.470;2023-03-16T07:44:42;14.10;99.90
19928;DHT22;10126;50.876;4.470;2023-03-16T07:46:42;14.10;99.90
19928;DHT22;10126;50.876;4.470;2023-03-16T07:48:44;13.90;99.90
19928;DHT22;10126;50.876;4.470;2023-03-16T07:50:46;13.60;99.90
19928;DHT22;10126;50.876;4.470;2023-03-16T07:52:47;13.20;99.90
19928;DHT22;10126;50.876;4.470;2023-03-16T07:54:48;12.50;99.90
19928;DHT22;10126;50.876;4.470;2023-03-16T07:56:49;13.30;99.90
19928;DHT22;10126;50.876;4.470;2023-03-16T07:58:49;14.10;99.90
19928;DHT22;10126;50.876;4.470;2023-03-16T08:00:50;14.50;99.90
19928;DHT22;10126;50.876;4.470;2023-03-16T08:02:51;14.90;99.90
19928;DHT22;10126;50.876;4.470;2023-03-16T08:04:53;14.80;99.90
19928;DHT22;10126;50.876;4.470;2023-03-16T08:06:53;14.20;99.90
19928;DHT22;10126;50.876;4.470;2023-03-16T08:08:59;13.40;99.90
19928;DHT22;10126;50.876;4.470;2023-03-16T08:11:01;12.70;99.90
19928;DHT22;10126;50.876;4.470;2023-03-16T08:13:03;12.60;99.90
19928;DHT22;10126;50.876;4.470;2023-03-16T08:15:07;12.40;99.90
19928;DHT22;10126;50.876;4.470;2023-03-16T08:17:07;12.20;99.90
19928;DHT22;10126;50.876;4.470;2023-03-16T08:19:08;12.40;99.90
19928;DHT22;10126;50.876;4.470;2023-03-16T08:21:10;12.50;99.90
19928;DHT22;10126;50.876;4.470;2023-03-16T08:23:11;12.50;99.90
19928;DHT22;10126;50.876;4.470;2023-03-16T08:25:14;12.50;99.90
19928;DHT22;10126;50.876;4.470;2023-03-16T08:27:15;12.50;99.90
19928;DHT22;10126;50.876;4.470;2023-03-16T08:29:17;12.60;99.90
19928;DHT22;10126;50.876;4.470;2023-03-16T08:31:18;12.50;99.90
19928;DHT22;10126;50.876;4.470;2023-03-16T08:33:19;12.70;99.90
19928;DHT22;10126;50.876;4.470;2023-03-16T08:35:20;12.60;99.90
19928;DHT22;10126;50.876;4.470;2023-03-16T08:37:20;12.40;99.90
19928;DHT22;10126;50.876;4.470;2023-03-16T08:39:21;12.40;99.90
19928;DHT22;10126;50.876;4.470;2023-03-16T08:41:22;12.60;99.90
19928;DHT22;10126;50.876;4.470;2023-03-16T08:43:23;12.50;99.90
19928;DHT22;10126;50.876;4.470;2023-03-16T08:45:25;12.50;99.90
19928;DHT22;10126;50.876;4.470;2023-03-16T08:47:25;12.60;99.90
19928;DHT22;10126;50.876;4.470;2023-03-16T08:49:26;12.70;99.90
19928;DHT22;10126;50.876;4.470;2023-03-16T08:51:28;12.60;99.90
19928;DHT22;10126;50.876;4.470;2023-03-16T08:53:28;12.60;99.90
19928;DHT22;10126;50.876;4.470;2023-03-16T08:55:29;12.50;99.90
19928;DHT22;10126;50.876;4.470;2023-03-16T08:57:33;12.80;99.90
19928;DHT22;10126;50.876;4.470;2023-03-16T08:59:34;13.10;99.90
19928;DHT22;10126;50.876;4.470;2023-03-16T09:01:34;13.20;99.90
19928;DHT22;10126;50.876;4.470;2023-03-16T09:03:35;13.30;99.90
19928;DHT22;10126;50.876;4.470;2023-03-16T09:05:35;13.00;99.90
19928;DHT22;10126;50.876;4.470;2023-03-16T09:07:37;13.00;99.90
19928;DHT22;10126;50.876;4.470;2023-03-16T09:09:38;12.90;99.90
19928;DHT22;10126;50.876;4.470;2023-03-16T09:11:39;12.60;99.90
19928;DHT22;10126;50.876;4.470;2023-03-16T09:13:42;12.80;99.90
19928;DHT22;10126;50.876;4.470;2023-03-16T09:15:46;12.90;99.90
19928;DHT22;10126;50.876;4.470;2023-03-16T09:17:47;12.90;99.90
19928;DHT22;10126;50.876;4.470;2023-03-16T09:19:48;12.90;99.90
19928;DHT22;10126;50.876;4.470;2023-03-16T09:21:49;13.00;99.90
19928;DHT22;10126;50.876;4.470;2023-03-16T09:23:50;13.00;99.90
19928;DHT22;10126;50.876;4.470;2023-03-16T09:25:51;13.40;99.90
19928;DHT22;10126;50.876;4.470;2023-03-16T09:27:52;13.50;99.90
19928;DHT22;10126;50.876;4.470;2023-03-16T09:29:53;13.50;99.90
19928;DHT22;10126;50.876;4.470;2023-03-16T09:31:58;13.40;99.90
19928;DHT22;10126;50.876;4.470;2023-03-16T09:33:59;13.20;99.90
19928;DHT22;10126;50.876;4.470;2023-03-16T09:36:00;13.30;99.90
19928;DHT22;10126;50.876;4.470;2023-03-16T09:38:01;13.20;99.90
19928;DHT22;10126;50.876;4.470;2023-03-16T09:40:03;13.20;99.90
19928;DHT22;10126;50.876;4.470;2023-03-16T09:42:40;13.20;99.90
19928;DHT22;10126;50.876;4.470;2023-03-16T09:45:02;13.40;99.90
19928;DHT22;10126;50.876;4.470;2023-03-16T09:47:08;13.30;99.90
19928;DHT22;10126;50.876;4.470;2023-03-16T09:49:12;13.10;99.90
19928;DHT22;10126;50.876;4.470;2023-03-16T09:53:33;13.10;99.90
19928;DHT22;10126;50.876;4.470;2023-03-16T09:55:37;13.20;99.90
19928;DHT22;10126;50.876;4.470;2023-03-16T09:57:40;13.60;99.90
19928;DHT22;10126;50.876;4.470;2023-03-16T09:59:42;13.60;99.90
19928;DHT22;10126;50.876;4.470;2023-03-16T10:01:52;13.60;99.90
19928;DHT22;10126;50.876;4.470;2023-03-16T10:06:03;13.70;99.90
19928;DHT22;10126;50.876;4.470;2023-03-16T10:08:32;13.60;99.90
19928;DHT22;10126;50.876;4.470;2023-03-16T10:12:48;13.90;99.90
19928;DHT22;10126;50.876;4.470;2023-03-16T10:15:01;14.10;99.90
19928;DHT22;10126;50.876;4.470;2023-03-16T10:17:16;14.40;99.90
19928;DHT22;10126;50.876;4.470;2023-03-16T10:21:39;14.10;99.90
19928;DHT22;10126;50.876;4.470;2023-03-16T10:23:41;14.20;99.90
19928;DHT22;10126;50.876;4.470;2023-03-16T10:25:50;14.30;99.90
19928;DHT22;10126;50.876;4.470;2023-03-16T10:27:51;14.30;99.90
19928;DHT22;10126;50.876;4.470;2023-03-16T10:29:52;14.30;99.90
19928;DHT22;10126;50.876;4.470;2023-03-16T10:31:57;13.90;99.90
19928;DHT22;10126;50.876;4.470;2023-03-16T10:34:05;13.90;99.90
19928;DHT22;10126;50.876;4.470;2023-03-16T10:36:13;14.00;99.90
19928;DHT22;10126;50.876;4.470;2023-03-16T10:40:42;14.30;99.90
19928;DHT22;10126;50.876;4.470;2023-03-16T10:42:43;14.30;99.90
19928;DHT22;10126;50.876;4.470;2023-03-16T10:44:46;14.30;99.90
19928;DHT22;10126;50.876;4.470;2023-03-16T10:46:59;14.40;99.90
19928;DHT22;10126;50.876;4.470;2023-03-16T10:49:01;14.10;99.90
19928;DHT22;10126;50.876;4.470;2023-03-16T10:51:07;14.10;99.90
19928;DHT22;10126;50.876;4.470;2023-03-16T10:53:17;14.00;99.90
19928;DHT22;10126;50.876;4.470;2023-03-16T10:55:22;14.00;99.90
19928;DHT22;10126;50.876;4.470;2023-03-16T10:57:31;13.90;99.90
19928;DHT22;10126;50.876;4.470;2023-03-16T10:59:34;14.20;99.90
19928;DHT22;10126;50.876;4.470;2023-03-16T11:01:36;14.50;99.90
19928;DHT22;10126;50.876;4.470;2023-03-16T11:03:39;14.40;99.90
19928;DHT22;10126;50.876;4.470;2023-03-16T11:05:44;14.40;99.90
19928;DHT22;10126;50.876;4.470;2023-03-16T11:07:48;14.30;99.90
19928;DHT22;10126;50.876;4.470;2023-03-16T11:09:54;14.40;99.90
19928;DHT22;10126;50.876;4.470;2023-03-16T11:11:55;14.50;99.90
19928;DHT22;10126;50.876;4.470;2023-03-16T11:13:57;14.70;99.90
19928;DHT22;10126;50.876;4.470;2023-03-16T11:16:23;14.90;99.90
19928;DHT22;10126;50.876;4.470;2023-03-16T11:18:33;15.00;99.90
19928;DHT22;10126;50.876;4.470;2023-03-16T11:20:35;15.00;99.90
19928;DHT22;10126;50.876;4.470;2023-03-16T11:22:36;14.80;99.90
19928;DHT22;10126;50.876;4.470;2023-03-16T11:27:04;14.90;99.90
19928;DHT22;10126;50.876;4.470;2023-03-16T11:30:37;14.70;99.90
19928;DHT22;10126;50.876;4.470;2023-03-16T11:32:12;14.60;99.90
19928;DHT22;10126;50.876;4.470;2023-03-16T11:34:17;14.50;99.90
19928;DHT22;10126;50.876;4.470;2023-03-16T11:38:33;14.50;99.90
19928;DHT22;10126;50.876;4.470;2023-03-16T11:45:35;14.70;99.90
19928;DHT22;10126;50.876;4.470;2023-03-16T11:50:04;14.40;99.90
19928;DHT22;10126;50.876;4.470;2023-03-16T11:54:29;14.40;99.90
19928;DHT22;10126;50.876;4.470;2023-03-16T11:56:42;14.30;99.90
19928;DHT22;10126;50.876;4.470;2023-03-16T12:08:17;15.00;99.90
19928;DHT22;10126;50.876;4.470;2023-03-16T12:10:46;15.10;99.90
19928;DHT22;10126;50.876;4.470;2023-03-16T12:17:35;15.20;99.90
19928;DHT22;10126;50.876;4.470;2023-03-16T12:20:16;15.00;99.90
19928;DHT22;10126;50.876;4.470;2023-03-16T12:22:28;14.80;99.90
19928;DHT22;10126;50.876;4.470;2023-03-16T12:24:40;14.60;99.90
19928;DHT22;10126;50.876;4.470;2023-03-16T12:26:43;14.60;99.90
19928;DHT22;10126;50.876;4.470;2023-03-16T12:28:49;14.60;99.90
19928;DHT22;10126;50.876;4.470;2023-03-16T12:33:33;14.80;99.90
19928;DHT22;10126;50.876;4.470;2023-03-16T12:45:58;14.70;99.90
19928;DHT22;10126;50.876;4.470;2023-03-16T12:48:15;14.90;99.90
19928;DHT22;10126;50.876;4.470;2023-03-16T12:50:19;15.00;99.90
19928;DHT22;10126;50.876;4.470;2023-03-16T12:52:20;15.00;99.90
19928;DHT22;10126;50.876;4.470;2023-03-16T12:54:26;15.00;99.90
19928;DHT22;10126;50.876;4.470;2023-03-16T12:56:28;15.00;99.90
19928;DHT22;10126;50.876;4.470;2023-03-16T12:58:30;15.00;99.90
19928;DHT22;10126;50.876;4.470;2023-03-16T13:00:35;15.10;99.90
19928;DHT22;10126;50.876;4.470;2023-03-16T13:02:40;15.20;99.90
19928;DHT22;10126;50.876;4.470;2023-03-16T13:04:45;15.30;99.90
19928;DHT22;10126;50.876;4.470;2023-03-16T13:06:51;15.30;99.90
19928;DHT22;10126;50.876;4.470;2023-03-16T13:09:01;15.20;99.90
19928;DHT22;10126;50.876;4.470;2023-03-16T13:11:06;15.00;99.90
19928;DHT22;10126;50.876;4.470;2023-03-16T13:19:28;15.20;99.90
19928;DHT22;10126;50.876;4.470;2023-03-16T13:21:38;15.10;99.90
19928;DHT22;10126;50.876;4.470;2023-03-16T13:23:55;15.10;99.90
19928;DHT22;10126;50.876;4.470;2023-03-16T13:27:58;15.40;99.90
19928;DHT22;10126;50.876;4.470;2023-03-16T13:30:01;15.40;99.90
19928;DHT22;10126;50.876;4.470;2023-03-16T13:32:07;15.40;99.90
19928;DHT22;10126;50.876;4.470;2023-03-16T13:34:18;15.40;99.90
19928;DHT22;10126;50.876;4.470;2023-03-16T13:36:19;15.50;99.90
19928;DHT22;10126;50.876;4.470;2023-03-16T13:38:22;15.40;99.90
19928;DHT22;10126;50.876;4.470;2023-03-16T13:40:26;15.20;99.90
19928;DHT22;10126;50.876;4.470;2023-03-16T13:42:31;15.20;99.90
19928;DHT22;10126;50.876;4.470;2023-03-16T13:44:33;15.30;99.90
19928;DHT22;10126;50.876;4.470;2023-03-16T13:46:38;15.30;99.90
19928;DHT22;10126;50.876;4.470;2023-03-16T13:48:39;15.30;99.90
19928;DHT22;10126;50.876;4.470;2023-03-16T13:50:41;15.20;99.90
19928;DHT22;10126;50.876;4.470;2023-03-16T13:52:51;15.30;99.90
19928;DHT22;10126;50.876;4.470;2023-03-16T13:54:53;15.40;99.90
19928;DHT22;10126;50.876;4.470;2023-03-16T13:57:01;15.60;99.90
19928;DHT22;10126;50.876;4.470;2023-03-16T13:59:03;15.70;99.90
19928;DHT22;10126;50.876;4.470;2023-03-16T14:01:31;15.50;99.90
19928;DHT22;10126;50.876;4.470;2023-03-16T14:03:37;15.60;99.90
19928;DHT22;10126;50.876;4.470;2023-03-16T14:05:38;15.60;99.90
19928;DHT22;10126;50.876;4.470;2023-03-16T14:07:40;15.60;99.90
19928;DHT22;10126;50.876;4.470;2023-03-16T14:09:40;15.60;99.90
19928;DHT22;10126;50.876;4.470;2023-03-16T14:11:42;15.50;99.90
19928;DHT22;10126;50.876;4.470;2023-03-16T14:13:53;15.50;99.90
19928;DHT22;10126;50.876;4.470;2023-03-16T14:15:56;15.50;99.90